createdAt,value
2018-05-14T00:02:26.956Z,95.40
2018-05-14T00:04:54.613Z,94.40
2018-05-14T00:07:22.389Z,94.20
2018-05-14T00:09:50.025Z,94.30
2018-05-14T00:12:17.708Z,94.40
2018-05-14T00:14:45.397Z,96.00
2018-05-14T00:17:13.933Z,96.70
2018-05-14T00:19:41.691Z,96.60
2018-05-14T00:22:09.384Z,96.20
2018-05-14T00:24:37.114Z,97.20
2018-05-14T00:27:04.793Z,97.10
2018-05-14T00:29:32.478Z,97.50
2018-05-14T00:32:00.150Z,97.80
2018-05-14T00:34:27.875Z,99.30
2018-05-14T00:36:55.543Z,99.90
2018-05-14T00:39:23.310Z,99.00
2018-05-14T00:41:50.969Z,99.00
2018-05-14T00:44:18.729Z,99.60
2018-05-14T00:46:46.407Z,99.90
2018-05-14T00:49:14.092Z,99.90
2018-05-14T00:51:41.758Z,99.90
2018-05-14T00:54:09.457Z,99.90
2018-05-14T00:56:37.127Z,99.90
2018-05-14T00:59:04.819Z,99.90
2018-05-14T01:01:32.481Z,99.90
2018-05-14T01:04:00.243Z,99.90
2018-05-14T01:06:28.001Z,99.90
2018-05-14T01:08:55.671Z,99.90
2018-05-14T01:11:23.350Z,99.90
2018-05-14T01:13:51.040Z,99.90
2018-05-14T01:16:18.742Z,99.90
2018-05-14T01:18:47.272Z,99.90
2018-05-14T01:21:15.031Z,99.90
2018-05-14T01:23:42.728Z,99.90
2018-05-14T01:26:10.395Z,99.90
2018-05-14T01:28:38.123Z,99.90
2018-05-14T01:31:05.917Z,99.90
2018-05-14T01:33:33.600Z,99.90
2018-05-14T01:36:01.288Z,99.90
2018-05-14T01:38:29.029Z,99.90
2018-05-14T01:40:56.787Z,99.90
2018-05-14T01:43:24.491Z,99.90
2018-05-14T01:45:52.279Z,99.90
2018-05-14T01:48:19.974Z,99.90
2018-05-14T01:50:48.397Z,99.90
2018-05-14T01:53:16.166Z,99.90
2018-05-14T01:55:43.885Z,99.90
2018-05-14T01:58:11.649Z,99.90
2018-05-14T02:00:39.418Z,99.90
2018-05-14T02:03:07.178Z,99.90
2018-05-14T02:05:35.071Z,99.90
2018-05-14T02:08:02.753Z,99.90
2018-05-14T02:10:30.487Z,99.90
2018-05-14T02:12:58.158Z,99.90
2018-05-14T02:15:25.943Z,99.90
2018-05-14T02:17:53.582Z,99.90
2018-05-14T02:20:21.291Z,99.90
2018-05-14T02:22:48.963Z,99.90
2018-05-14T02:25:17.419Z,99.90
2018-05-14T02:27:45.080Z,99.90
2018-05-14T02:30:12.780Z,99.90
2018-05-14T02:32:40.431Z,99.90
2018-05-14T02:35:08.189Z,99.90
2018-05-14T02:37:36.281Z,99.90
2018-05-14T02:40:03.930Z,99.90
2018-05-14T02:42:31.654Z,99.90
2018-05-14T02:45:00.159Z,99.90
2018-05-14T02:47:28.648Z,99.90
2018-05-14T02:49:56.341Z,99.90
2018-05-14T02:52:24.007Z,99.90
2018-05-14T02:54:51.690Z,99.90
2018-05-14T02:57:20.131Z,99.90
2018-05-14T02:59:47.883Z,99.90
2018-05-14T03:02:15.648Z,99.90
2018-05-14T03:04:43.436Z,99.90
2018-05-14T03:07:11.169Z,99.90
2018-05-14T03:09:38.863Z,99.90
2018-05-14T03:12:06.542Z,99.90
2018-05-14T03:14:34.243Z,99.90
2018-05-14T03:17:01.946Z,99.90
2018-05-14T03:19:29.696Z,99.90
2018-05-14T03:21:57.484Z,99.90
2018-05-14T03:24:25.253Z,99.90
2018-05-14T03:26:52.996Z,99.90
2018-05-14T03:29:20.748Z,99.90
2018-05-14T03:31:48.528Z,99.90
2018-05-14T03:34:16.195Z,99.90
2018-05-14T03:36:43.973Z,99.90
2018-05-14T03:39:11.741Z,99.90
2018-05-14T03:41:39.402Z,99.90
2018-05-14T03:44:07.823Z,99.90
2018-05-14T03:46:36.351Z,99.90
2018-05-14T03:49:04.027Z,99.90
2018-05-14T03:51:31.708Z,99.90
2018-05-14T03:53:59.457Z,99.90
2018-05-14T03:56:27.134Z,99.90
2018-05-14T03:59:00.699Z,99.90
2018-05-14T04:01:35.131Z,99.90
2018-05-14T04:04:08.663Z,99.90
2018-05-14T04:06:36.398Z,99.90
2018-05-14T04:09:04.828Z,99.90
2018-05-14T04:11:32.574Z,99.90
2018-05-14T04:14:00.325Z,99.90
2018-05-14T04:16:28.036Z,99.90
2018-05-14T04:18:55.695Z,99.90
2018-05-14T04:21:23.388Z,99.90
2018-05-14T04:23:51.927Z,99.90
2018-05-14T04:26:19.597Z,99.90
2018-05-14T04:28:47.357Z,99.90
2018-05-14T04:31:15.019Z,99.90
2018-05-14T04:33:42.785Z,99.90
2018-05-14T04:36:10.453Z,99.90
2018-05-14T04:38:38.110Z,99.90
2018-05-14T04:41:05.795Z,99.90
2018-05-14T04:43:33.511Z,99.90
2018-05-14T04:46:01.217Z,99.90
2018-05-14T04:48:28.965Z,99.90
2018-05-14T04:50:56.730Z,99.90
2018-05-14T04:53:24.382Z,99.90
2018-05-14T04:55:52.083Z,99.90
2018-05-14T04:58:20.026Z,99.90
2018-05-14T05:00:47.883Z,99.90
2018-05-14T05:03:16.310Z,99.90
2018-05-14T05:05:44.090Z,99.90
2018-05-14T05:08:11.793Z,99.90
2018-05-14T05:10:39.487Z,99.90
2018-05-14T05:13:07.240Z,99.90
2018-05-14T05:15:34.914Z,99.90
2018-05-14T05:18:02.676Z,99.90
2018-05-14T05:20:30.443Z,99.90
2018-05-14T05:22:58.128Z,99.90
2018-05-14T05:25:25.793Z,99.90
2018-05-14T05:27:53.525Z,99.90
2018-05-14T05:30:21.194Z,99.90
2018-05-14T05:32:48.879Z,99.90
2018-05-14T05:35:16.541Z,99.90
2018-05-14T05:37:44.287Z,99.90
2018-05-14T05:40:11.911Z,99.90
2018-05-14T05:42:40.371Z,99.90
2018-05-14T05:45:08.047Z,99.90
2018-05-14T05:47:36.518Z,99.90
2018-05-14T05:50:04.272Z,99.90
2018-05-14T05:52:32.039Z,99.90
2018-05-14T05:54:59.687Z,99.90
2018-05-14T05:57:27.439Z,99.90
2018-05-14T05:59:55.196Z,99.90
2018-05-14T06:02:22.985Z,99.90
2018-05-14T06:04:50.629Z,99.90
2018-05-14T06:07:18.309Z,99.90
2018-05-14T06:09:45.973Z,99.90
2018-05-14T06:12:13.711Z,99.90
2018-05-14T06:14:41.372Z,99.90
2018-05-14T06:17:09.101Z,99.90
2018-05-14T06:19:36.748Z,99.90
2018-05-14T06:22:04.468Z,99.90
2018-05-14T06:24:32.150Z,99.90
2018-05-14T06:26:59.839Z,99.90
2018-05-14T06:29:27.545Z,99.90
2018-05-14T06:31:55.223Z,99.90
2018-05-14T06:34:23.011Z,99.90
2018-05-14T06:36:50.658Z,99.90
2018-05-14T06:39:18.344Z,99.90
2018-05-14T06:41:46.800Z,99.90
2018-05-14T06:44:15.055Z,99.90
2018-05-14T06:46:42.632Z,99.90
2018-05-14T06:49:10.381Z,99.90
2018-05-14T06:51:38.166Z,99.90
2018-05-14T06:54:05.933Z,99.90
2018-05-14T06:56:33.619Z,99.90
2018-05-14T06:59:01.346Z,99.90
2018-05-14T07:01:29.023Z,99.90
2018-05-14T07:03:56.712Z,99.90
2018-05-14T07:06:24.385Z,99.90
2018-05-14T07:08:52.093Z,99.90
2018-05-14T07:11:19.745Z,99.90
2018-05-14T07:13:47.450Z,99.90
2018-05-14T07:16:15.190Z,99.90
2018-05-14T07:18:42.959Z,99.90
2018-05-14T07:21:10.632Z,99.90
2018-05-14T07:23:38.327Z,99.90
2018-05-14T07:26:05.988Z,99.90
2018-05-14T07:28:33.681Z,99.90
2018-05-14T07:31:02.122Z,99.90
2018-05-14T07:33:29.854Z,99.90
2018-05-14T07:35:57.624Z,99.90
2018-05-14T07:38:25.414Z,99.90
2018-05-14T07:40:53.062Z,99.90
2018-05-14T07:43:20.759Z,99.90
2018-05-14T07:45:48.429Z,99.90
2018-05-14T07:48:16.142Z,99.90
2018-05-14T07:50:43.800Z,99.90
2018-05-14T07:53:11.499Z,99.90
2018-05-14T07:55:39.204Z,99.90
2018-05-14T07:58:06.890Z,99.90
2018-05-14T08:00:34.668Z,99.90
2018-05-14T08:03:02.363Z,99.90
2018-05-14T08:05:30.069Z,99.90
2018-05-14T08:07:57.738Z,99.90
2018-05-14T08:10:25.519Z,99.90
2018-05-14T08:12:53.182Z,99.90
2018-05-14T08:15:21.616Z,99.90
2018-05-14T08:17:50.090Z,99.90
2018-05-14T08:20:17.798Z,99.90
2018-05-14T08:22:45.493Z,99.90
2018-05-14T08:25:13.168Z,99.90
2018-05-14T08:27:40.838Z,99.90
2018-05-14T08:30:08.550Z,99.90
2018-05-14T08:32:36.252Z,99.90
2018-05-14T08:35:03.934Z,99.90
2018-05-14T08:37:31.612Z,99.90
2018-05-14T08:39:59.308Z,99.00
2018-05-14T08:42:27.022Z,99.60
2018-05-14T08:44:55.442Z,97.10
2018-05-14T08:47:23.203Z,97.10
2018-05-14T08:49:50.891Z,97.30
2018-05-14T08:52:18.598Z,97.20
2018-05-14T08:54:46.322Z,97.30
2018-05-14T08:57:13.947Z,95.60
2018-05-14T08:59:41.631Z,93.00
2018-05-14T09:02:09.359Z,93.70
2018-05-14T09:04:37.123Z,92.40
2018-05-14T09:07:04.846Z,91.50
2018-05-14T09:09:33.307Z,91.10
2018-05-14T09:12:00.986Z,91.10
2018-05-14T09:14:29.528Z,88.00
2018-05-14T09:16:57.201Z,87.90
2018-05-14T09:19:24.918Z,91.30
2018-05-14T09:21:52.630Z,91.40
2018-05-14T09:24:21.045Z,88.70
2018-05-14T09:26:48.710Z,88.80
2018-05-14T09:29:17.147Z,90.10
2018-05-14T09:31:44.896Z,90.10
2018-05-14T09:34:12.667Z,90.00
2018-05-14T09:36:40.449Z,88.70
2018-05-14T09:39:08.111Z,90.00
2018-05-14T09:41:35.898Z,89.50
2018-05-14T09:44:03.623Z,85.50
2018-05-14T09:46:31.377Z,82.80
2018-05-14T09:48:59.146Z,83.30
2018-05-14T09:51:27.583Z,83.60
2018-05-14T09:53:56.018Z,84.20
2018-05-14T09:56:23.775Z,84.30
2018-05-14T09:58:51.464Z,83.80
2018-05-14T10:01:19.139Z,78.40
2018-05-14T10:03:46.869Z,80.10
2018-05-14T10:06:15.373Z,82.00
2018-05-14T10:08:43.009Z,82.00
2018-05-14T10:11:10.798Z,81.50
2018-05-14T10:13:38.464Z,80.50
2018-05-14T10:16:06.133Z,75.50
2018-05-14T10:18:33.830Z,76.40
2018-05-14T10:21:02.341Z,72.00
2018-05-14T10:23:30.042Z,72.00
2018-05-14T10:25:57.740Z,72.00
2018-05-14T10:28:26.253Z,59.00
2018-05-14T10:30:53.998Z,59.00
2018-05-14T10:33:21.684Z,58.60
2018-05-14T10:35:49.477Z,60.90
2018-05-14T10:38:17.125Z,57.80
2018-05-14T10:40:44.920Z,56.80
2018-05-14T10:43:12.641Z,56.70
2018-05-14T10:45:40.331Z,57.10
2018-05-14T10:48:08.186Z,56.40
2018-05-14T10:50:35.785Z,55.90
2018-05-14T10:53:03.495Z,55.60
2018-05-14T10:55:31.185Z,54.00
2018-05-14T10:57:58.871Z,53.10
2018-05-14T11:00:26.567Z,54.60
2018-05-14T11:02:54.358Z,54.70
2018-05-14T11:05:22.036Z,53.30
2018-05-14T11:07:49.809Z,54.80
2018-05-14T11:10:17.437Z,53.50
2018-05-14T11:12:45.139Z,52.40
2018-05-14T11:15:12.802Z,53.80
2018-05-14T11:17:40.484Z,53.50
2018-05-14T11:20:08.190Z,53.00
2018-05-14T11:22:35.976Z,51.80
2018-05-14T11:25:03.717Z,53.90
2018-05-14T11:27:31.463Z,51.40
2018-05-14T11:29:59.082Z,52.80
2018-05-14T11:32:26.822Z,52.80
2018-05-14T11:34:54.489Z,50.70
2018-05-14T11:37:22.255Z,49.80
2018-05-14T11:39:49.996Z,51.50
2018-05-14T11:42:17.679Z,49.60
2018-05-14T11:44:45.437Z,50.30
2018-05-14T11:47:13.144Z,50.20
2018-05-14T11:49:41.594Z,50.10
2018-05-14T11:52:09.356Z,50.00
2018-05-14T11:54:37.012Z,47.60
2018-05-14T11:57:04.698Z,45.80
2018-05-14T11:59:32.423Z,49.40
2018-05-14T12:02:00.108Z,46.10
2018-05-14T12:04:27.796Z,48.90
2018-05-14T12:06:55.538Z,49.10
2018-05-14T12:09:23.286Z,45.50
2018-05-14T12:11:51.041Z,46.20
2018-05-14T12:14:18.805Z,41.90
2018-05-14T12:16:46.598Z,39.20
2018-05-14T12:19:14.239Z,39.10
2018-05-14T12:21:41.951Z,35.80
2018-05-14T12:24:09.635Z,36.10
2018-05-14T12:26:37.331Z,32.60
2018-05-14T12:29:05.012Z,30.30
2018-05-14T12:31:32.757Z,29.50
2018-05-14T12:34:00.443Z,28.80
2018-05-14T12:36:28.111Z,25.90
2018-05-14T12:38:55.803Z,25.60
2018-05-14T12:41:24.238Z,25.50
2018-05-14T12:43:51.937Z,25.40
2018-05-14T12:46:19.649Z,25.00
2018-05-14T12:48:47.400Z,24.00
2018-05-14T12:51:15.082Z,23.70
2018-05-14T12:53:42.847Z,23.60
2018-05-14T12:56:10.533Z,23.50
2018-05-14T12:58:38.244Z,23.20
2018-05-14T13:01:05.936Z,23.70
2018-05-14T13:03:33.635Z,23.20
2018-05-14T13:06:01.378Z,23.10
2018-05-14T13:08:29.075Z,22.10
2018-05-14T13:10:56.800Z,23.10
2018-05-14T13:13:24.476Z,22.80
2018-05-14T13:15:52.224Z,22.70
2018-05-14T13:18:19.935Z,22.70
2018-05-14T13:20:48.507Z,23.60
2018-05-14T13:23:16.257Z,23.60
2018-05-14T13:25:43.913Z,23.60
2018-05-14T13:28:11.628Z,23.80
2018-05-14T13:30:39.296Z,23.40
2018-05-14T13:33:07.001Z,23.30
2018-05-14T13:35:34.774Z,23.80
2018-05-14T13:38:02.557Z,23.80
2018-05-14T13:40:30.111Z,24.20
2018-05-14T13:42:57.908Z,23.60
2018-05-14T13:45:25.603Z,23.30
2018-05-14T13:47:53.367Z,24.00
2018-05-14T13:50:21.162Z,24.40
2018-05-14T13:52:48.926Z,24.30
2018-05-14T13:55:16.590Z,23.70
2018-05-14T13:57:44.250Z,24.60
2018-05-14T14:00:11.950Z,24.70
2018-05-14T14:02:40.471Z,24.40
2018-05-14T14:05:08.165Z,24.40
2018-05-14T14:07:35.835Z,24.80
2018-05-14T14:10:03.534Z,24.50
2018-05-14T14:12:31.973Z,24.40
2018-05-14T14:14:59.677Z,24.90
2018-05-14T14:17:28.127Z,24.80
2018-05-14T14:19:55.830Z,24.70
2018-05-14T14:22:23.532Z,26.10
2018-05-14T14:24:51.223Z,25.00
2018-05-14T14:27:18.950Z,25.60
2018-05-14T14:29:46.739Z,24.20
2018-05-14T14:32:14.333Z,24.20
2018-05-14T14:34:42.786Z,24.30
2018-05-14T14:37:10.534Z,24.20
2018-05-14T14:39:38.142Z,23.10
2018-05-14T14:42:06.664Z,24.40
2018-05-14T14:44:34.271Z,24.40
2018-05-14T14:47:01.945Z,25.00
2018-05-14T14:49:30.401Z,24.10
2018-05-14T14:51:58.067Z,24.10
2018-05-14T14:54:27.283Z,25.40
2018-05-14T14:56:55.823Z,24.90
2018-05-14T14:59:23.604Z,24.90
2018-05-14T15:01:51.264Z,25.20
2018-05-14T15:04:19.013Z,25.30
2018-05-14T15:06:46.779Z,25.80
2018-05-14T15:09:14.520Z,25.60
2018-05-14T15:11:42.222Z,25.40
2018-05-14T15:14:09.886Z,26.00
2018-05-14T15:16:38.352Z,26.70
2018-05-14T15:19:06.032Z,26.60
2018-05-14T15:21:33.797Z,26.60
2018-05-14T15:24:01.540Z,26.00
2018-05-14T15:26:35.033Z,25.90
2018-05-14T15:29:02.706Z,26.70
2018-05-14T15:31:31.174Z,26.10
2018-05-14T15:33:58.890Z,26.00
2018-05-14T15:36:26.583Z,26.30
2018-05-14T15:38:54.259Z,26.90
2018-05-14T15:41:22.019Z,26.90
2018-05-14T15:43:49.753Z,26.30
2018-05-14T15:46:17.514Z,26.60
2018-05-14T15:48:45.261Z,26.60
2018-05-14T15:51:12.954Z,26.60
2018-05-14T15:53:40.662Z,26.30
2018-05-14T15:56:09.186Z,27.00
2018-05-14T15:58:37.595Z,26.60
2018-05-14T16:01:05.308Z,26.60
2018-05-14T16:03:32.979Z,27.30
2018-05-14T16:06:00.662Z,26.80
2018-05-14T16:08:28.409Z,25.90
2018-05-14T16:10:56.089Z,25.30
2018-05-14T16:13:23.767Z,27.10
2018-05-14T16:15:51.470Z,26.10
2018-05-14T16:18:19.925Z,26.60
2018-05-14T16:20:47.752Z,26.60
2018-05-14T16:23:15.420Z,26.90
2018-05-14T16:25:43.114Z,26.40
2018-05-14T16:28:10.887Z,26.20
2018-05-14T16:30:39.340Z,25.80
2018-05-14T16:33:07.095Z,25.80
2018-05-14T16:35:34.859Z,26.40
2018-05-14T16:38:02.528Z,26.20
2018-05-14T16:40:30.212Z,26.30
2018-05-14T16:42:57.909Z,27.20
2018-05-14T16:45:26.459Z,26.80
2018-05-14T16:47:54.117Z,26.80
2018-05-14T16:50:21.808Z,26.90
2018-05-14T16:52:49.518Z,27.60
2018-05-14T16:55:17.317Z,27.70
2018-05-14T16:57:45.076Z,28.00
2018-05-14T17:00:12.655Z,28.20
2018-05-14T17:02:41.117Z,28.10
2018-05-14T17:05:08.790Z,28.10
2018-05-14T17:07:36.477Z,27.40
2018-05-14T17:10:04.914Z,28.20
2018-05-14T17:12:32.692Z,28.20
2018-05-14T17:15:00.371Z,27.70
2018-05-14T17:17:28.137Z,27.70
2018-05-14T17:19:55.758Z,27.80
2018-05-14T17:22:23.527Z,27.70
2018-05-14T17:24:51.205Z,27.70
2018-05-14T17:27:18.982Z,28.20
2018-05-14T17:29:46.694Z,27.90
2018-05-14T17:32:14.387Z,27.80
2018-05-14T17:34:42.168Z,29.00
2018-05-14T17:37:09.845Z,28.40
2018-05-14T17:39:37.531Z,30.00
2018-05-14T17:42:06.072Z,29.60
2018-05-14T17:44:33.763Z,29.60
2018-05-14T17:47:01.504Z,30.20
2018-05-14T17:49:29.129Z,29.80
2018-05-14T17:51:56.922Z,30.20
2018-05-14T17:54:25.407Z,29.80
2018-05-14T17:56:53.100Z,30.10
2018-05-14T17:59:20.835Z,30.60
2018-05-14T18:01:48.513Z,30.90
2018-05-14T18:04:16.221Z,31.50
2018-05-14T18:06:44.645Z,32.40
2018-05-14T18:09:12.340Z,32.30
2018-05-14T18:11:40.006Z,32.60
2018-05-14T18:14:08.765Z,33.70
2018-05-14T18:16:36.451Z,33.70
2018-05-14T18:19:04.893Z,32.90
2018-05-14T18:21:37.603Z,32.80
2018-05-14T18:24:05.279Z,34.20
2018-05-14T18:26:39.628Z,37.00
2018-05-14T18:29:07.438Z,36.70
2018-05-14T18:31:41.569Z,36.10
2018-05-14T18:34:09.701Z,36.00
2018-05-14T18:36:38.296Z,37.30
2018-05-14T18:39:06.064Z,37.90
2018-05-14T18:41:33.662Z,39.00
2018-05-14T18:44:01.348Z,39.20
2018-05-14T18:46:29.940Z,39.70
2018-05-14T18:48:57.546Z,39.70
2018-05-14T18:51:25.223Z,39.90
2018-05-14T18:53:53.599Z,41.70
2018-05-14T18:56:21.297Z,41.80
2018-05-14T18:58:48.962Z,42.70
2018-05-14T19:01:17.400Z,44.20
2018-05-14T19:03:45.153Z,44.20
2018-05-14T19:06:14.147Z,44.90
2018-05-14T19:08:41.926Z,44.80
2018-05-14T19:11:15.360Z,44.10
2018-05-14T19:13:43.810Z,44.10
2018-05-14T19:16:17.354Z,44.10
2018-05-14T19:18:45.815Z,46.40
2018-05-14T19:21:14.259Z,47.30
2018-05-14T19:23:47.815Z,47.20
2018-05-14T19:26:15.512Z,46.40
2018-05-14T19:28:49.107Z,47.50
2018-05-14T19:31:16.769Z,46.00
2018-05-14T19:33:50.331Z,48.50
2018-05-14T19:36:18.773Z,48.80
2018-05-14T19:38:46.445Z,48.80
2018-05-14T19:41:14.139Z,48.20
2018-05-14T19:43:42.660Z,50.10
2018-05-14T19:46:10.435Z,49.40
2018-05-14T19:48:38.117Z,49.10
2018-05-14T19:51:05.800Z,49.50
2018-05-14T19:53:33.508Z,48.90
2018-05-14T19:56:01.178Z,49.70
2018-05-14T19:58:28.959Z,50.20
2018-05-14T20:00:56.660Z,48.70
2018-05-14T20:03:25.125Z,50.40
2018-05-14T20:05:53.087Z,51.20
2018-05-14T20:08:20.790Z,49.60
2018-05-14T20:10:49.229Z,50.00
2018-05-14T20:13:16.903Z,50.00
2018-05-14T20:15:44.597Z,50.40
2018-05-14T20:18:13.052Z,51.00
2018-05-14T20:20:40.763Z,50.90
2018-05-14T20:23:08.439Z,50.50
2018-05-14T20:25:36.208Z,50.80
2018-05-14T20:28:03.974Z,52.00
2018-05-14T20:30:31.711Z,51.30
2018-05-14T20:33:00.208Z,52.50
2018-05-14T20:35:28.092Z,52.40
2018-05-14T20:37:55.745Z,53.80
2018-05-14T20:40:23.517Z,52.20
2018-05-14T20:42:51.190Z,53.00
2018-05-14T20:45:18.923Z,52.70
2018-05-14T20:47:46.607Z,52.40
2018-05-14T20:50:14.357Z,52.30
2018-05-14T20:52:42.017Z,52.80
2018-05-14T20:55:09.718Z,52.00
2018-05-14T20:57:37.489Z,53.50
2018-05-14T21:00:05.189Z,52.50
2018-05-14T21:02:33.718Z,53.70
2018-05-14T21:05:01.404Z,53.70
2018-05-14T21:07:30.610Z,54.90
2018-05-14T21:09:58.284Z,54.90
2018-05-14T21:12:25.953Z,54.50
2018-05-14T21:14:54.438Z,55.20
2018-05-14T21:17:22.972Z,55.60
2018-05-14T21:19:51.339Z,55.40
2018-05-14T21:22:19.178Z,56.30
2018-05-14T21:24:47.594Z,55.70
2018-05-14T21:27:15.268Z,55.70
2018-05-14T21:29:43.172Z,56.40
2018-05-14T21:32:10.883Z,57.20
2018-05-14T21:34:38.583Z,58.30
2018-05-14T21:37:06.543Z,58.50
2018-05-14T21:39:34.191Z,58.40
2018-05-14T21:42:01.877Z,59.30
2018-05-14T21:44:29.549Z,59.30
2018-05-14T21:46:57.242Z,59.00
2018-05-14T21:49:25.708Z,60.00
2018-05-14T21:51:53.427Z,60.00
2018-05-14T21:54:21.091Z,59.40
2018-05-14T21:56:48.792Z,62.00
2018-05-14T21:59:16.471Z,60.90
2018-05-14T22:01:44.921Z,63.40
2018-05-14T22:04:12.622Z,63.40
2018-05-14T22:06:41.261Z,64.20
2018-05-14T22:09:08.923Z,64.20
2018-05-14T22:11:36.592Z,65.00
2018-05-14T22:14:04.352Z,66.60
2018-05-14T22:16:32.128Z,66.60
2018-05-14T22:18:59.773Z,67.60
2018-05-14T22:21:27.544Z,65.70
2018-05-14T22:23:55.284Z,67.80
2018-05-14T22:26:23.080Z,66.20
2018-05-14T22:28:50.827Z,67.80
2018-05-14T22:31:18.514Z,70.40
2018-05-14T22:33:46.177Z,68.30
2018-05-14T22:36:13.931Z,70.40
2018-05-14T22:38:41.581Z,72.10
2018-05-14T22:41:09.285Z,72.20
2018-05-14T22:43:36.949Z,75.50
2018-05-14T22:46:04.639Z,77.40
2018-05-14T22:48:33.124Z,78.70
2018-05-14T22:51:00.908Z,78.70
2018-05-14T22:53:28.600Z,79.20
2018-05-14T22:55:56.291Z,79.10
2018-05-14T22:58:24.739Z,80.30
2018-05-14T23:00:52.508Z,79.30
2018-05-14T23:03:20.162Z,77.20
2018-05-14T23:05:47.830Z,77.60
2018-05-14T23:08:15.534Z,79.10
2018-05-14T23:10:43.958Z,80.50
2018-05-14T23:13:11.724Z,80.50
2018-05-14T23:15:40.124Z,82.10
2018-05-14T23:18:07.855Z,82.30
2018-05-14T23:20:35.617Z,84.40
2018-05-14T23:23:03.355Z,83.20
2018-05-14T23:25:31.873Z,86.40
2018-05-14T23:27:59.569Z,85.50
2018-05-14T23:30:27.248Z,88.50
2018-05-14T23:32:55.752Z,89.10
2018-05-14T23:35:24.258Z,91.70
2018-05-14T23:37:51.935Z,91.70
2018-05-14T23:40:20.404Z,93.60
2018-05-14T23:42:48.139Z,92.90
2018-05-14T23:45:16.579Z,94.40
2018-05-14T23:47:44.299Z,94.50
2018-05-14T23:50:11.967Z,96.30
2018-05-14T23:52:39.715Z,97.00
2018-05-14T23:55:07.441Z,99.00
2018-05-14T23:57:35.121Z,99.90
